sensor_id;sensor_type;location;lat;lon;timestamp;temperature;humidity
11656;DHT22;5884;43.618;1.438;2023-09-30T04:46:07;18.90;99.90
11656;DHT22;5884;43.618;1.438;2023-09-30T04:48:38;18.90;99.90
11656;DHT22;5884;43.618;1.438;2023-09-30T04:51:06;18.90;99.90
11656;DHT22;5884;43.618;1.438;2023-09-30T04:53:35;18.80;99.90
11656;DHT22;5884;43.618;1.438;2023-09-30T04:56:03;18.80;99.90
11656;DHT22;5884;43.618;1.438;2023-09-30T04:58:30;18.80;99.90
11656;DHT22;5884;43.618;1.438;2023-09-30T05:00:57;18.80;99.90
11656;DHT22;5884;43.618;1.438;2023-09-30T05:03:26;18.80;99.90
11656;DHT22;5884;43.618;1.438;2023-09-30T05:05:53;18.80;99.90
11656;DHT22;5884;43.618;1.438;2023-09-30T05:08:23;18.70;99.90
11656;DHT22;5884;43.618;1.438;2023-09-30T05:10:51;18.70;99.90
11656;DHT22;5884;43.618;1.438;2023-09-30T05:13:20;18.70;99.90
11656;DHT22;5884;43.618;1.438;2023-09-30T05:15:49;18.70;99.90
11656;DHT22;5884;43.618;1.438;2023-09-30T05:18:17;18.60;99.90
11656;DHT22;5884;43.618;1.438;2023-09-30T05:20:45;18.60;99.90
11656;DHT22;5884;43.618;1.438;2023-09-30T05:23:12;18.60;99.90
11656;DHT22;5884;43.618;1.438;2023-09-30T05:25:40;18.60;99.90
11656;DHT22;5884;43.618;1.438;2023-09-30T05:28:08;18.60;99.90
11656;DHT22;5884;43.618;1.438;2023-09-30T05:30:37;18.60;99.90
11656;DHT22;5884;43.618;1.438;2023-09-30T05:33:04;18.50;99.90
11656;DHT22;5884;43.618;1.438;2023-09-30T05:35:31;18.50;99.90
11656;DHT22;5884;43.618;1.438;2023-09-30T05:38:00;18.50;99.90
11656;DHT22;5884;43.618;1.438;2023-09-30T05:40:29;18.50;99.90
11656;DHT22;5884;43.618;1.438;2023-09-30T05:42:57;18.50;99.90
11656;DHT22;5884;43.618;1.438;2023-09-30T05:45:25;18.40;99.90
11656;DHT22;5884;43.618;1.438;2023-09-30T05:47:53;18.40;99.90
11656;DHT22;5884;43.618;1.438;2023-09-30T05:50:22;18.40;99.90
11656;DHT22;5884;43.618;1.438;2023-09-30T05:52:52;18.40;99.90
11656;DHT22;5884;43.618;1.438;2023-09-30T05:55:22;18.30;99.90
11656;DHT22;5884;43.618;1.438;2023-09-30T05:57:51;18.30;99.90
11656;DHT22;5884;43.618;1.438;2023-09-30T06:00:19;18.30;99.90
11656;DHT22;5884;43.618;1.438;2023-09-30T06:02:53;18.30;99.90
11656;DHT22;5884;43.618;1.438;2023-09-30T06:05:21;18.30;99.90
11656;DHT22;5884;43.618;1.438;2023-09-30T06:07:49;18.30;99.90
11656;DHT22;5884;43.618;1.438;2023-09-30T06:10:16;18.30;99.90
11656;DHT22;5884;43.618;1.438;2023-09-30T06:12:47;18.30;99.90
11656;DHT22;5884;43.618;1.438;2023-09-30T06:15:14;18.30;99.90
11656;DHT22;5884;43.618;1.438;2023-09-30T06:17:47;18.30;99.90
11656;DHT22;5884;43.618;1.438;2023-09-30T06:20:16;18.30;99.90
11656;DHT22;5884;43.618;1.438;2023-09-30T06:22:44;18.30;99.90
11656;DHT22;5884;43.618;1.438;2023-09-30T06:25:13;18.40;99.90
11656;DHT22;5884;43.618;1.438;2023-09-30T06:27:42;18.40;99.90
11656;DHT22;5884;43.618;1.438;2023-09-30T06:30:11;18.30;99.90
11656;DHT22;5884;43.618;1.438;2023-09-30T06:32:41;18.40;99.90
11656;DHT22;5884;43.618;1.438;2023-09-30T06:35:09;18.40;99.90
11656;DHT22;5884;43.618;1.438;2023-09-30T06:37:38;18.40;99.90
11656;DHT22;5884;43.618;1.438;2023-09-30T06:40:07;18.40;99.90
11656;DHT22;5884;43.618;1.438;2023-09-30T06:42:37;18.50;99.90
11656;DHT22;5884;43.618;1.438;2023-09-30T06:45:06;18.50;99.90
11656;DHT22;5884;43.618;1.438;2023-09-30T06:47:37;18.50;99.90
11656;DHT22;5884;43.618;1.438;2023-09-30T06:50:09;18.50;99.90
11656;DHT22;5884;43.618;1.438;2023-09-30T06:52:38;18.60;99.90
11656;DHT22;5884;43.618;1.438;2023-09-30T06:55:07;18.60;99.90
11656;DHT22;5884;43.618;1.438;2023-09-30T06:57:36;18.50;99.90
11656;DHT22;5884;43.618;1.438;2023-09-30T07:00:05;18.60;99.90
11656;DHT22;5884;43.618;1.438;2023-09-30T07:02:34;18.60;99.90
11656;DHT22;5884;43.618;1.438;2023-09-30T07:05:06;18.60;99.90
11656;DHT22;5884;43.618;1.438;2023-09-30T07:07:33;18.70;99.90
11656;DHT22;5884;43.618;1.438;2023-09-30T07:10:01;18.70;99.90
11656;DHT22;5884;43.618;1.438;2023-09-30T07:12:28;18.70;99.90
11656;DHT22;5884;43.618;1.438;2023-09-30T07:14:57;18.70;99.90
11656;DHT22;5884;43.618;1.438;2023-09-30T07:17:24;18.80;99.90
11656;DHT22;5884;43.618;1.438;2023-09-30T07:19:53;18.80;99.90
11656;DHT22;5884;43.618;1.438;2023-09-30T07:22:21;18.90;99.90
11656;DHT22;5884;43.618;1.438;2023-09-30T07:24:48;18.90;99.90
11656;DHT22;5884;43.618;1.438;2023-09-30T07:27:16;19.00;99.90
11656;DHT22;5884;43.618;1.438;2023-09-30T07:29:43;19.10;99.90
11656;DHT22;5884;43.618;1.438;2023-09-30T07:32:11;19.10;99.90
11656;DHT22;5884;43.618;1.438;2023-09-30T07:34:38;19.10;99.90
11656;DHT22;5884;43.618;1.438;2023-09-30T07:37:07;19.20;99.90
11656;DHT22;5884;43.618;1.438;2023-09-30T07:39:35;19.20;99.90
11656;DHT22;5884;43.618;1.438;2023-09-30T07:42:03;19.20;99.90
11656;DHT22;5884;43.618;1.438;2023-09-30T07:44:31;19.20;99.90
11656;DHT22;5884;43.618;1.438;2023-09-30T07:46:58;19.40;99.90
11656;DHT22;5884;43.618;1.438;2023-09-30T07:49:25;19.40;99.90
11656;DHT22;5884;43.618;1.438;2023-09-30T07:51:53;19.50;99.90
11656;DHT22;5884;43.618;1.438;2023-09-30T07:54:22;19.60;99.90
11656;DHT22;5884;43.618;1.438;2023-09-30T07:56:49;19.70;99.90
11656;DHT22;5884;43.618;1.438;2023-09-30T07:59:16;19.80;99.90
11656;DHT22;5884;43.618;1.438;2023-09-30T08:01:43;19.80;99.90
11656;DHT22;5884;43.618;1.438;2023-09-30T08:04:11;19.90;99.90
11656;DHT22;5884;43.618;1.438;2023-09-30T08:06:38;20.00;99.90
11656;DHT22;5884;43.618;1.438;2023-09-30T08:09:06;20.10;99.90
11656;DHT22;5884;43.618;1.438;2023-09-30T08:11:38;20.20;99.90
11656;DHT22;5884;43.618;1.438;2023-09-30T08:14:06;20.20;99.90
11656;DHT22;5884;43.618;1.438;2023-09-30T08:16:35;20.30;99.90
11656;DHT22;5884;43.618;1.438;2023-09-30T08:19:02;20.40;99.90
11656;DHT22;5884;43.618;1.438;2023-09-30T08:21:30;20.50;99.90
11656;DHT22;5884;43.618;1.438;2023-09-30T08:23:57;20.50;99.90
11656;DHT22;5884;43.618;1.438;2023-09-30T08:26:24;20.60;99.90
11656;DHT22;5884;43.618;1.438;2023-09-30T08:28:53;20.70;99.90
11656;DHT22;5884;43.618;1.438;2023-09-30T08:31:20;20.80;99.90
11656;DHT22;5884;43.618;1.438;2023-09-30T08:33:49;20.90;99.90
11656;DHT22;5884;43.618;1.438;2023-09-30T08:36:16;21.00;99.90
11656;DHT22;5884;43.618;1.438;2023-09-30T08:38:44;21.10;99.90
11656;DHT22;5884;43.618;1.438;2023-09-30T08:41:24;21.20;99.90
11656;DHT22;5884;43.618;1.438;2023-09-30T08:43:59;21.20;99.90
11656;DHT22;5884;43.618;1.438;2023-09-30T08:46:30;21.30;99.90
11656;DHT22;5884;43.618;1.438;2023-09-30T08:49:01;21.40;99.90
11656;DHT22;5884;43.618;1.438;2023-09-30T08:51:30;21.50;99.90
11656;DHT22;5884;43.618;1.438;2023-09-30T08:53:58;21.50;99.90
11656;DHT22;5884;43.618;1.438;2023-09-30T08:56:28;21.60;99.90
11656;DHT22;5884;43.618;1.438;2023-09-30T08:58:59;21.70;99.90
11656;DHT22;5884;43.618;1.438;2023-09-30T09:01:28;21.80;99.90
11656;DHT22;5884;43.618;1.438;2023-09-30T09:03:57;21.90;99.90
11656;DHT22;5884;43.618;1.438;2023-09-30T09:06:25;22.00;99.90
11656;DHT22;5884;43.618;1.438;2023-09-30T09:08:53;22.10;99.90
11656;DHT22;5884;43.618;1.438;2023-09-30T09:11:20;22.20;99.90
11656;DHT22;5884;43.618;1.438;2023-09-30T09:13:50;22.40;99.90
11656;DHT22;5884;43.618;1.438;2023-09-30T09:16:23;22.50;99.90
11656;DHT22;5884;43.618;1.438;2023-09-30T09:18:51;22.60;99.90
11656;DHT22;5884;43.618;1.438;2023-09-30T09:21:21;22.70;99.90
11656;DHT22;5884;43.618;1.438;2023-09-30T09:23:52;22.70;99.90
11656;DHT22;5884;43.618;1.438;2023-09-30T09:26:25;22.80;99.90
11656;DHT22;5884;43.618;1.438;2023-09-30T09:28:57;22.80;99.90
11656;DHT22;5884;43.618;1.438;2023-09-30T09:31:28;22.90;99.90
11656;DHT22;5884;43.618;1.438;2023-09-30T09:33:56;22.90;99.90
11656;DHT22;5884;43.618;1.438;2023-09-30T09:36:39;23.00;99.90
11656;DHT22;5884;43.618;1.438;2023-09-30T09:39:07;23.10;99.90
11656;DHT22;5884;43.618;1.438;2023-09-30T09:41:49;23.20;99.90
11656;DHT22;5884;43.618;1.438;2023-09-30T09:44:19;23.30;99.90
11656;DHT22;5884;43.618;1.438;2023-09-30T09:46:49;23.30;99.90
11656;DHT22;5884;43.618;1.438;2023-09-30T09:49:17;23.50;99.90
11656;DHT22;5884;43.618;1.438;2023-09-30T09:51:46;23.60;99.90
11656;DHT22;5884;43.618;1.438;2023-09-30T09:54:15;23.80;99.90
11656;DHT22;5884;43.618;1.438;2023-09-30T09:56:45;23.90;99.90
11656;DHT22;5884;43.618;1.438;2023-09-30T09:59:12;24.00;99.90
11656;DHT22;5884;43.618;1.438;2023-09-30T10:01:41;24.10;99.90
11656;DHT22;5884;43.618;1.438;2023-09-30T10:04:11;24.10;99.90
11656;DHT22;5884;43.618;1.438;2023-09-30T10:06:40;24.20;99.90
11656;DHT22;5884;43.618;1.438;2023-09-30T10:09:10;24.20;99.90
11656;DHT22;5884;43.618;1.438;2023-09-30T10:11:38;24.50;99.90
11656;DHT22;5884;43.618;1.438;2023-09-30T10:14:06;24.50;99.90
11656;DHT22;5884;43.618;1.438;2023-09-30T10:16:49;24.60;99.90
11656;DHT22;5884;43.618;1.438;2023-09-30T10:19:19;24.60;99.90
11656;DHT22;5884;43.618;1.438;2023-09-30T10:22:25;24.80;99.90
11656;DHT22;5884;43.618;1.438;2023-09-30T10:24:53;25.00;99.90
11656;DHT22;5884;43.618;1.438;2023-09-30T10:27:32;25.00;99.90
11656;DHT22;5884;43.618;1.438;2023-09-30T10:30:09;24.90;99.90
11656;DHT22;5884;43.618;1.438;2023-09-30T10:33:07;24.80;99.90
11656;DHT22;5884;43.618;1.438;2023-09-30T10:35:47;24.90;99.90
11656;DHT22;5884;43.618;1.438;2023-09-30T10:38:36;25.10;99.90
11656;DHT22;5884;43.618;1.438;2023-09-30T10:41:07;25.20;99.90
11656;DHT22;5884;43.618;1.438;2023-09-30T10:43:36;25.20;99.90
11656;DHT22;5884;43.618;1.438;2023-09-30T10:46:09;25.30;99.90
11656;DHT22;5884;43.618;1.438;2023-09-30T10:49:29;25.30;99.90
11656;DHT22;5884;43.618;1.438;2023-09-30T10:52:00;25.40;99.90
11656;DHT22;5884;43.618;1.438;2023-09-30T10:54:29;25.40;99.90
11656;DHT22;5884;43.618;1.438;2023-09-30T10:56:58;25.50;99.90
11656;DHT22;5884;43.618;1.438;2023-09-30T10:59:28;25.40;99.90
11656;DHT22;5884;43.618;1.438;2023-09-30T11:01:57;25.40;99.90
11656;DHT22;5884;43.618;1.438;2023-09-30T11:04:24;25.50;99.90
11656;DHT22;5884;43.618;1.438;2023-09-30T11:06:54;25.50;99.90
11656;DHT22;5884;43.618;1.438;2023-09-30T11:09:23;25.70;99.90
11656;DHT22;5884;43.618;1.438;2023-09-30T11:11:51;25.90;99.90
11656;DHT22;5884;43.618;1.438;2023-09-30T11:14:21;26.00;99.90
11656;DHT22;5884;43.618;1.438;2023-09-30T11:16:50;26.10;99.90
11656;DHT22;5884;43.618;1.438;2023-09-30T11:19:20;26.20;99.90
11656;DHT22;5884;43.618;1.438;2023-09-30T11:21:49;26.30;99.90
11656;DHT22;5884;43.618;1.438;2023-09-30T11:24:16;26.30;99.90
11656;DHT22;5884;43.618;1.438;2023-09-30T11:26:46;26.10;99.90
11656;DHT22;5884;43.618;1.438;2023-09-30T11:29:15;26.10;99.90
11656;DHT22;5884;43.618;1.438;2023-09-30T11:31:43;26.20;99.90
11656;DHT22;5884;43.618;1.438;2023-09-30T11:34:12;26.40;99.90
11656;DHT22;5884;43.618;1.438;2023-09-30T11:36:49;26.40;99.90
11656;DHT22;5884;43.618;1.438;2023-09-30T11:39:24;26.50;99.90
11656;DHT22;5884;43.618;1.438;2023-09-30T11:41:54;26.30;99.90
11656;DHT22;5884;43.618;1.438;2023-09-30T11:44:25;26.40;99.90
11656;DHT22;5884;43.618;1.438;2023-09-30T11:46:55;26.50;99.90
11656;DHT22;5884;43.618;1.438;2023-09-30T11:49:26;26.60;99.90
11656;DHT22;5884;43.618;1.438;2023-09-30T11:51:55;26.60;99.90
11656;DHT22;5884;43.618;1.438;2023-09-30T11:54:29;26.70;99.90
11656;DHT22;5884;43.618;1.438;2023-09-30T11:56:59;26.40;99.90
11656;DHT22;5884;43.618;1.438;2023-09-30T11:59:27;26.40;99.90
11656;DHT22;5884;43.618;1.438;2023-09-30T12:01:55;26.50;99.90
11656;DHT22;5884;43.618;1.438;2023-09-30T12:04:23;26.70;99.90
11656;DHT22;5884;43.618;1.438;2023-09-30T12:06:50;26.70;99.90
11656;DHT22;5884;43.618;1.438;2023-09-30T12:09:18;26.70;99.90
11656;DHT22;5884;43.618;1.438;2023-09-30T12:11:48;26.70;99.90
11656;DHT22;5884;43.618;1.438;2023-09-30T12:14:16;26.80;99.90
11656;DHT22;5884;43.618;1.438;2023-09-30T12:16:44;27.00;99.90
11656;DHT22;5884;43.618;1.438;2023-09-30T12:19:13;27.00;99.90
11656;DHT22;5884;43.618;1.438;2023-09-30T12:21:41;26.80;99.90
11656;DHT22;5884;43.618;1.438;2023-09-30T12:24:09;27.00;99.90
11656;DHT22;5884;43.618;1.438;2023-09-30T12:26:39;27.00;99.90
11656;DHT22;5884;43.618;1.438;2023-09-30T12:29:07;27.10;99.90
11656;DHT22;5884;43.618;1.438;2023-09-30T12:31:36;27.20;99.90
11656;DHT22;5884;43.618;1.438;2023-09-30T12:34:04;27.00;99.90
11656;DHT22;5884;43.618;1.438;2023-09-30T12:36:31;27.00;99.90
11656;DHT22;5884;43.618;1.438;2023-09-30T12:38:58;27.00;99.90
11656;DHT22;5884;43.618;1.438;2023-09-30T12:41:26;27.10;99.90
11656;DHT22;5884;43.618;1.438;2023-09-30T12:43:55;27.10;99.90
11656;DHT22;5884;43.618;1.438;2023-09-30T12:46:22;27.30;99.90
11656;DHT22;5884;43.618;1.438;2023-09-30T12:48:51;27.40;99.90
11656;DHT22;5884;43.618;1.438;2023-09-30T12:51:20;27.50;99.90
11656;DHT22;5884;43.618;1.438;2023-09-30T12:53:47;27.50;99.90
11656;DHT22;5884;43.618;1.438;2023-09-30T12:56:14;27.50;99.90
11656;DHT22;5884;43.618;1.438;2023-09-30T12:58:42;27.50;99.90
11656;DHT22;5884;43.618;1.438;2023-09-30T13:01:09;27.60;99.90
11656;DHT22;5884;43.618;1.438;2023-09-30T13:03:37;27.60;99.90
11656;DHT22;5884;43.618;1.438;2023-09-30T13:06:05;27.50;99.90
11656;DHT22;5884;43.618;1.438;2023-09-30T13:08:33;27.60;99.90
11656;DHT22;5884;43.618;1.438;2023-09-30T13:11:02;27.70;99.90
11656;DHT22;5884;43.618;1.438;2023-09-30T13:13:29;27.80;99.90
11656;DHT22;5884;43.618;1.438;2023-09-30T13:15:59;27.70;99.90
11656;DHT22;5884;43.618;1.438;2023-09-30T13:18:26;27.80;99.90
11656;DHT22;5884;43.618;1.438;2023-09-30T13:20:53;27.90;99.90
11656;DHT22;5884;43.618;1.438;2023-09-30T13:23:22;27.70;99.90
11656;DHT22;5884;43.618;1.438;2023-09-30T13:25:49;27.60;99.90
11656;DHT22;5884;43.618;1.438;2023-09-30T13:28:17;27.70;99.90
11656;DHT22;5884;43.618;1.438;2023-09-30T13:30:44;27.80;99.90
11656;DHT22;5884;43.618;1.438;2023-09-30T13:33:13;27.90;99.90
11656;DHT22;5884;43.618;1.438;2023-09-30T13:35:41;27.90;99.90
11656;DHT22;5884;43.618;1.438;2023-09-30T13:38:08;28.00;99.90
11656;DHT22;5884;43.618;1.438;2023-09-30T13:40:36;27.90;99.90
11656;DHT22;5884;43.618;1.438;2023-09-30T13:43:05;28.00;99.90
11656;DHT22;5884;43.618;1.438;2023-09-30T13:45:32;28.00;99.90
11656;DHT22;5884;43.618;1.438;2023-09-30T13:48:00;28.00;99.90
11656;DHT22;5884;43.618;1.438;2023-09-30T13:50:27;28.10;99.90
11656;DHT22;5884;43.618;1.438;2023-09-30T13:52:54;28.10;99.90
11656;DHT22;5884;43.618;1.438;2023-09-30T13:55:22;28.10;99.90
11656;DHT22;5884;43.618;1.438;2023-09-30T13:57:51;28.20;99.90
11656;DHT22;5884;43.618;1.438;2023-09-30T14:00:18;28.10;99.90
11656;DHT22;5884;43.618;1.438;2023-09-30T14:02:45;28.20;99.90
11656;DHT22;5884;43.618;1.438;2023-09-30T14:05:12;28.30;99.90
11656;DHT22;5884;43.618;1.438;2023-09-30T14:07:39;28.40;99.90
11656;DHT22;5884;43.618;1.438;2023-09-30T14:10:08;28.40;99.90
11656;DHT22;5884;43.618;1.438;2023-09-30T14:12:36;28.40;99.90
11656;DHT22;5884;43.618;1.438;2023-09-30T14:15:07;28.40;99.90
11656;DHT22;5884;43.618;1.438;2023-09-30T14:17:35;28.40;99.90
11656;DHT22;5884;43.618;1.438;2023-09-30T14:20:03;28.40;99.90
11656;DHT22;5884;43.618;1.438;2023-09-30T14:22:31;28.40;99.90
11656;DHT22;5884;43.618;1.438;2023-09-30T14:24:58;28.30;99.90
11656;DHT22;5884;43.618;1.438;2023-09-30T14:27:26;28.30;99.90
11656;DHT22;5884;43.618;1.438;2023-09-30T14:29:53;28.30;99.90
11656;DHT22;5884;43.618;1.438;2023-09-30T14:32:21;28.30;99.90
11656;DHT22;5884;43.618;1.438;2023-09-30T14:34:49;28.40;99.90
11656;DHT22;5884;43.618;1.438;2023-09-30T14:37:17;28.40;99.90
11656;DHT22;5884;43.618;1.438;2023-09-30T14:39:44;28.40;99.90
11656;DHT22;5884;43.618;1.438;2023-09-30T14:42:11;28.40;99.90
11656;DHT22;5884;43.618;1.438;2023-09-30T14:44:38;28.40;99.90
11656;DHT22;5884;43.618;1.438;2023-09-30T14:47:06;28.50;99.90
11656;DHT22;5884;43.618;1.438;2023-09-30T14:49:35;28.50;99.90
11656;DHT22;5884;43.618;1.438;2023-09-30T14:52:03;28.50;99.90
11656;DHT22;5884;43.618;1.438;2023-09-30T14:54:31;28.40;99.90
11656;DHT22;5884;43.618;1.438;2023-09-30T14:56:58;28.50;99.90
11656;DHT22;5884;43.618;1.438;2023-09-30T14:59:25;28.50;99.90
11656;DHT22;5884;43.618;1.438;2023-09-30T15:01:52;28.50;99.90
11656;DHT22;5884;43.618;1.438;2023-09-30T15:04:19;28.50;99.90
11656;DHT22;5884;43.618;1.438;2023-09-30T15:06:48;28.50;99.90
11656;DHT22;5884;43.618;1.438;2023-09-30T15:09:15;28.40;99.90
11656;DHT22;5884;43.618;1.438;2023-09-30T15:11:43;28.60;99.90
11656;DHT22;5884;43.618;1.438;2023-09-30T15:14:10;28.50;99.90
11656;DHT22;5884;43.618;1.438;2023-09-30T15:16:38;28.60;99.90
11656;DHT22;5884;43.618;1.438;2023-09-30T15:19:05;28.50;99.90
11656;DHT22;5884;43.618;1.438;2023-09-30T15:21:32;28.50;99.90
11656;DHT22;5884;43.618;1.438;2023-09-30T15:24:01;28.60;99.90
11656;DHT22;5884;43.618;1.438;2023-09-30T15:26:29;28.60;99.90
11656;DHT22;5884;43.618;1.438;2023-09-30T15:28:58;28.60;99.90
11656;DHT22;5884;43.618;1.438;2023-09-30T15:31:27;28.50;99.90
11656;DHT22;5884;43.618;1.438;2023-09-30T15:33:55;28.40;99.90
11656;DHT22;5884;43.618;1.438;2023-09-30T15:36:22;28.40;99.90
11656;DHT22;5884;43.618;1.438;2023-09-30T15:38:52;28.30;99.90
11656;DHT22;5884;43.618;1.438;2023-09-30T15:41:23;28.40;99.90
11656;DHT22;5884;43.618;1.438;2023-09-30T15:43:50;28.40;99.90
11656;DHT22;5884;43.618;1.438;2023-09-30T15:46:18;28.50;99.90
11656;DHT22;5884;43.618;1.438;2023-09-30T15:48:45;28.40;99.90
11656;DHT22;5884;43.618;1.438;2023-09-30T15:51:12;28.40;99.90
11656;DHT22;5884;43.618;1.438;2023-09-30T15:53:40;28.40;99.90
11656;DHT22;5884;43.618;1.438;2023-09-30T15:56:07;28.40;99.90
11656;DHT22;5884;43.618;1.438;2023-09-30T15:58:35;28.40;99.90
11656;DHT22;5884;43.618;1.438;2023-09-30T16:01:03;28.40;99.90
11656;DHT22;5884;43.618;1.438;2023-09-30T16:03:30;28.40;99.90
11656;DHT22;5884;43.618;1.438;2023-09-30T16:05:57;28.30;99.90
11656;DHT22;5884;43.618;1.438;2023-09-30T16:08:24;28.20;99.90
11656;DHT22;5884;43.618;1.438;2023-09-30T16:10:51;28.10;99.90
11656;DHT22;5884;43.618;1.438;2023-09-30T16:13:19;28.20;99.90
11656;DHT22;5884;43.618;1.438;2023-09-30T16:15:47;28.10;99.90
11656;DHT22;5884;43.618;1.438;2023-09-30T16:18:15;28.10;99.90
11656;DHT22;5884;43.618;1.438;2023-09-30T16:20:42;28.10;99.90
11656;DHT22;5884;43.618;1.438;2023-09-30T16:23:09;28.00;99.90
11656;DHT22;5884;43.618;1.438;2023-09-30T16:25:36;28.00;99.90
11656;DHT22;5884;43.618;1.438;2023-09-30T16:28:04;28.00;99.90
11656;DHT22;5884;43.618;1.438;2023-09-30T16:30:31;28.00;99.90
11656;DHT22;5884;43.618;1.438;2023-09-30T16:33:00;27.90;99.90
11656;DHT22;5884;43.618;1.438;2023-09-30T16:35:27;27.90;99.90
11656;DHT22;5884;43.618;1.438;2023-09-30T16:37:54;27.90;99.90
11656;DHT22;5884;43.618;1.438;2023-09-30T16:40:21;27.80;99.90
11656;DHT22;5884;43.618;1.438;2023-09-30T16:42:49;27.80;99.90
11656;DHT22;5884;43.618;1.438;2023-09-30T16:45:16;27.80;99.90
11656;DHT22;5884;43.618;1.438;2023-09-30T16:47:44;27.80;99.90
11656;DHT22;5884;43.618;1.438;2023-09-30T16:50:12;27.70;99.90
11656;DHT22;5884;43.618;1.438;2023-09-30T16:52:40;27.70;99.90
11656;DHT22;5884;43.618;1.438;2023-09-30T16:55:08;27.60;99.90
11656;DHT22;5884;43.618;1.438;2023-09-30T16:57:35;27.50;99.90
11656;DHT22;5884;43.618;1.438;2023-09-30T17:00:03;27.40;99.90
11656;DHT22;5884;43.618;1.438;2023-09-30T17:02:31;27.40;99.90
11656;DHT22;5884;43.618;1.438;2023-09-30T17:04:59;27.30;99.90
11656;DHT22;5884;43.618;1.438;2023-09-30T17:07:29;27.20;99.90
11656;DHT22;5884;43.618;1.438;2023-09-30T17:09:57;27.10;99.90
11656;DHT22;5884;43.618;1.438;2023-09-30T17:12:24;27.10;99.90
11656;DHT22;5884;43.618;1.438;2023-09-30T17:14:51;27.00;99.90
11656;DHT22;5884;43.618;1.438;2023-09-30T17:17:19;26.90;99.90
11656;DHT22;5884;43.618;1.438;2023-09-30T17:19:46;26.80;99.90
11656;DHT22;5884;43.618;1.438;2023-09-30T17:22:13;26.80;99.90
11656;DHT22;5884;43.618;1.438;2023-09-30T17:24:44;26.80;99.90
11656;DHT22;5884;43.618;1.438;2023-09-30T17:27:11;26.70;99.90
11656;DHT22;5884;43.618;1.438;2023-09-30T17:29:39;26.60;99.90
11656;DHT22;5884;43.618;1.438;2023-09-30T17:32:06;26.50;99.90
11656;DHT22;5884;43.618;1.438;2023-09-30T17:34:34;26.40;99.90
11656;DHT22;5884;43.618;1.438;2023-09-30T17:37:02;26.40;99.90
11656;DHT22;5884;43.618;1.438;2023-09-30T17:39:30;26.40;99.90
11656;DHT22;5884;43.618;1.438;2023-09-30T17:41:58;26.40;99.90
11656;DHT22;5884;43.618;1.438;2023-09-30T17:44:25;26.30;99.90
11656;DHT22;5884;43.618;1.438;2023-09-30T17:46:53;26.30;99.90
11656;DHT22;5884;43.618;1.438;2023-09-30T17:49:21;26.10;99.90
11656;DHT22;5884;43.618;1.438;2023-09-30T17:51:48;26.00;99.90
11656;DHT22;5884;43.618;1.438;2023-09-30T17:54:15;25.80;99.90
11656;DHT22;5884;43.618;1.438;2023-09-30T17:56:42;25.70;99.90
11656;DHT22;5884;43.618;1.438;2023-09-30T17:59:11;25.70;99.90
11656;DHT22;5884;43.618;1.438;2023-09-30T18:01:38;25.60;99.90
11656;DHT22;5884;43.618;1.438;2023-09-30T18:04:07;25.50;99.90
11656;DHT22;5884;43.618;1.438;2023-09-30T18:06:35;25.50;99.90
11656;DHT22;5884;43.618;1.438;2023-09-30T18:09:03;25.30;99.90
11656;DHT22;5884;43.618;1.438;2023-09-30T18:11:33;25.30;99.90
11656;DHT22;5884;43.618;1.438;2023-09-30T18:14:01;25.10;99.90
11656;DHT22;5884;43.618;1.438;2023-09-30T18:16:30;25.20;99.90
11656;DHT22;5884;43.618;1.438;2023-09-30T18:18:57;25.00;99.90
11656;DHT22;5884;43.618;1.438;2023-09-30T18:21:24;25.00;99.90
11656;DHT22;5884;43.618;1.438;2023-09-30T18:23:51;24.90;99.90
11656;DHT22;5884;43.618;1.438;2023-09-30T18:26:19;24.80;99.90
11656;DHT22;5884;43.618;1.438;2023-09-30T18:28:46;24.80;99.90
11656;DHT22;5884;43.618;1.438;2023-09-30T18:31:17;24.70;99.90
11656;DHT22;5884;43.618;1.438;2023-09-30T18:33:46;24.60;99.90
11656;DHT22;5884;43.618;1.438;2023-09-30T18:36:13;24.60;99.90
11656;DHT22;5884;43.618;1.438;2023-09-30T18:38:40;24.50;99.90
11656;DHT22;5884;43.618;1.438;2023-09-30T18:41:11;24.50;99.90
11656;DHT22;5884;43.618;1.438;2023-09-30T18:43:41;24.50;99.90
11656;DHT22;5884;43.618;1.438;2023-09-30T18:46:09;24.40;99.90
11656;DHT22;5884;43.618;1.438;2023-09-30T18:48:38;24.30;99.90
11656;DHT22;5884;43.618;1.438;2023-09-30T18:51:07;24.30;99.90
11656;DHT22;5884;43.618;1.438;2023-09-30T18:53:34;24.20;99.90
11656;DHT22;5884;43.618;1.438;2023-09-30T18:56:04;24.20;99.90
11656;DHT22;5884;43.618;1.438;2023-09-30T18:58:32;24.10;99.90
11656;DHT22;5884;43.618;1.438;2023-09-30T19:00:59;24.10;99.90
11656;DHT22;5884;43.618;1.438;2023-09-30T19:03:27;24.10;99.90
11656;DHT22;5884;43.618;1.438;2023-09-30T19:05:54;24.00;99.90
11656;DHT22;5884;43.618;1.438;2023-09-30T19:08:22;23.90;99.90
11656;DHT22;5884;43.618;1.438;2023-09-30T19:10:50;23.90;99.90
11656;DHT22;5884;43.618;1.438;2023-09-30T19:13:17;23.80;99.90
11656;DHT22;5884;43.618;1.438;2023-09-30T19:15:44;23.80;99.90
11656;DHT22;5884;43.618;1.438;2023-09-30T19:18:11;23.80;99.90
11656;DHT22;5884;43.618;1.438;2023-09-30T19:20:42;23.70;99.90
11656;DHT22;5884;43.618;1.438;2023-09-30T19:23:10;23.60;99.90
11656;DHT22;5884;43.618;1.438;2023-09-30T19:25:38;23.60;99.90
11656;DHT22;5884;43.618;1.438;2023-09-30T19:28:05;23.60;99.90
11656;DHT22;5884;43.618;1.438;2023-09-30T19:30:33;23.50;99.90
11656;DHT22;5884;43.618;1.438;2023-09-30T19:33:00;23.50;99.90
11656;DHT22;5884;43.618;1.438;2023-09-30T19:35:28;23.40;99.90
11656;DHT22;5884;43.618;1.438;2023-09-30T19:37:55;23.40;99.90
11656;DHT22;5884;43.618;1.438;2023-09-30T19:40:23;23.30;99.90
11656;DHT22;5884;43.618;1.438;2023-09-30T19:42:51;23.30;99.90
11656;DHT22;5884;43.618;1.438;2023-09-30T19:45:19;23.30;99.90
11656;DHT22;5884;43.618;1.438;2023-09-30T19:47:46;23.30;99.90
11656;DHT22;5884;43.618;1.438;2023-09-30T19:50:13;23.20;99.90
11656;DHT22;5884;43.618;1.438;2023-09-30T19:52:40;23.20;99.90
11656;DHT22;5884;43.618;1.438;2023-09-30T19:55:08;23.20;99.90
11656;DHT22;5884;43.618;1.438;2023-09-30T19:57:36;23.10;99.90
11656;DHT22;5884;43.618;1.438;2023-09-30T20:00:05;23.10;99.90
11656;DHT22;5884;43.618;1.438;2023-09-30T20:02:35;23.10;99.90
11656;DHT22;5884;43.618;1.438;2023-09-30T20:05:03;23.00;99.90
11656;DHT22;5884;43.618;1.438;2023-09-30T20:07:31;23.00;99.90
11656;DHT22;5884;43.618;1.438;2023-09-30T20:09:58;23.00;99.90
11656;DHT22;5884;43.618;1.438;2023-09-30T20:12:29;23.00;99.90
11656;DHT22;5884;43.618;1.438;2023-09-30T20:14:57;23.00;99.90
11656;DHT22;5884;43.618;1.438;2023-09-30T20:17:25;23.00;99.90
11656;DHT22;5884;43.618;1.438;2023-09-30T20:19:52;22.90;99.90
11656;DHT22;5884;43.618;1.438;2023-09-30T20:22:20;22.80;99.90
11656;DHT22;5884;43.618;1.438;2023-09-30T20:24:47;22.70;99.90
11656;DHT22;5884;43.618;1.438;2023-09-30T20:27:20;22.70;99.90
11656;DHT22;5884;43.618;1.438;2023-09-30T20:29:48;22.70;99.90
11656;DHT22;5884;43.618;1.438;2023-09-30T20:32:15;22.60;99.90
11656;DHT22;5884;43.618;1.438;2023-09-30T20:34:45;22.60;99.90
11656;DHT22;5884;43.618;1.438;2023-09-30T20:37:12;22.60;99.90
11656;DHT22;5884;43.618;1.438;2023-09-30T20:39:39;22.60;99.90